sensor_id;sensor_type;location;lat;lon;timestamp;pressure;altitude;pressure_sealevel;temperature;humidity
13011;BME280;6786;57.632;11.962;2024-02-23T00:01:35;97053.72;;;17.90;46.60
13011;BME280;6786;57.632;11.962;2024-02-23T00:04:03;97040.34;;;17.97;46.64
13011;BME280;6786;57.632;11.962;2024-02-23T00:06:35;97025.94;;;17.98;46.65
13011;BME280;6786;57.632;11.962;2024-02-23T00:09:03;97018.75;;;17.98;46.74
13011;BME280;6786;57.632;11.962;2024-02-23T00:11:32;96996.56;;;17.98;46.67
13011;BME280;6786;57.632;11.962;2024-02-23T00:14:01;96996.56;;;17.98;46.82
13011;BME280;6786;57.632;11.962;2024-02-23T00:16:29;96978.91;;;17.97;46.75
13011;BME280;6786;57.632;11.962;2024-02-23T00:18:58;96978.91;;;17.97;46.61
13011;BME280;6786;57.632;11.962;2024-02-23T00:21:26;96908.34;;;17.62;46.85
13011;BME280;6786;57.632;11.962;2024-02-23T00:23:56;96948.91;;;17.95;46.71
13011;BME280;6786;57.632;11.962;2024-02-23T00:26:24;96938.84;;;17.97;46.68
13011;BME280;6786;57.632;11.962;2024-02-23T00:28:52;96932.44;;;17.98;46.62
13011;BME280;6786;57.632;11.962;2024-02-23T00:31:20;96916.84;;;17.95;46.74
13011;BME280;6786;57.632;11.962;2024-02-23T00:33:48;96916.41;;;17.98;46.67
13011;BME280;6786;57.632;11.962;2024-02-23T00:36:17;96902.50;;;17.96;46.78
13011;BME280;6786;57.632;11.962;2024-02-23T00:38:45;96893.44;;;17.97;46.63
13011;BME280;6786;57.632;11.962;2024-02-23T00:41:15;96877.41;;;17.97;46.76
13011;BME280;6786;57.632;11.962;2024-02-23T00:43:43;96787.38;;;17.43;46.84
13011;BME280;6786;57.632;11.962;2024-02-23T00:46:11;96850.97;;;17.89;46.54
13011;BME280;6786;57.632;11.962;2024-02-23T00:48:43;96842.06;;;17.95;46.56
13011;BME280;6786;57.632;11.962;2024-02-23T00:51:11;96820.84;;;17.82;46.77
13011;BME280;6786;57.632;11.962;2024-02-23T00:53:39;96823.16;;;17.96;46.63
13011;BME280;6786;57.632;11.962;2024-02-23T00:56:07;96810.63;;;17.97;46.64
13011;BME280;6786;57.632;11.962;2024-02-23T00:58:37;96710.00;;;17.36;46.56
13011;BME280;6786;57.632;11.962;2024-02-23T01:01:05;96797.28;;;17.97;46.61
13011;BME280;6786;57.632;11.962;2024-02-23T01:03:35;96799.34;;;17.95;46.59
13011;BME280;6786;57.632;11.962;2024-02-23T01:06:03;96778.81;;;17.95;46.56
13011;BME280;6786;57.632;11.962;2024-02-23T01:08:31;96783.31;;;17.95;46.64
13011;BME280;6786;57.632;11.962;2024-02-23T01:11:00;96783.31;;;17.95;46.55
13011;BME280;6786;57.632;11.962;2024-02-23T01:13:28;96773.06;;;17.92;46.57
13011;BME280;6786;57.632;11.962;2024-02-23T01:15:58;96759.06;;;17.96;46.54
13011;BME280;6786;57.632;11.962;2024-02-23T01:18:26;96756.16;;;17.98;46.70
13011;BME280;6786;57.632;11.962;2024-02-23T01:20:56;96750.81;;;17.98;46.73
13011;BME280;6786;57.632;11.962;2024-02-23T01:23:24;96754.31;;;17.98;46.65
13011;BME280;6786;57.632;11.962;2024-02-23T01:25:52;96733.16;;;17.97;46.50
13011;BME280;6786;57.632;11.962;2024-02-23T01:28:21;96733.16;;;17.97;46.63
13011;BME280;6786;57.632;11.962;2024-02-23T01:30:49;96720.88;;;17.96;46.63
13011;BME280;6786;57.632;11.962;2024-02-23T01:33:18;96703.19;;;17.95;46.62
13011;BME280;6786;57.632;11.962;2024-02-23T01:35:47;96681.69;;;17.90;46.61
13011;BME280;6786;57.632;11.962;2024-02-23T01:38:15;96692.50;;;17.95;46.71
13011;BME280;6786;57.632;11.962;2024-02-23T01:40:47;96669.53;;;17.94;46.79
13011;BME280;6786;57.632;11.962;2024-02-23T01:43:15;96671.97;;;17.95;46.65
13011;BME280;6786;57.632;11.962;2024-02-23T01:45:43;96649.44;;;17.91;46.59
13011;BME280;6786;57.632;11.962;2024-02-23T01:48:12;96657.22;;;17.93;46.54
13011;BME280;6786;57.632;11.962;2024-02-23T01:50:42;96563.69;;;17.33;46.58
13011;BME280;6786;57.632;11.962;2024-02-23T01:53:12;96630.06;;;17.96;46.63
13011;BME280;6786;57.632;11.962;2024-02-23T01:55:41;96620.41;;;17.95;46.59
13011;BME280;6786;57.632;11.962;2024-02-23T01:58:09;96623.06;;;17.95;46.56
13011;BME280;6786;57.632;11.962;2024-02-23T02:00:38;96623.88;;;17.95;46.71
13011;BME280;6786;57.632;11.962;2024-02-23T02:03:06;96602.16;;;17.92;46.75
13011;BME280;6786;57.632;11.962;2024-02-23T02:05:38;96530.22;;;17.37;46.40
13011;BME280;6786;57.632;11.962;2024-02-23T02:08:08;96626.78;;;17.94;46.66
13011;BME280;6786;57.632;11.962;2024-02-23T02:10:38;96595.38;;;17.78;46.59
13011;BME280;6786;57.632;11.962;2024-02-23T02:13:07;96625.16;;;17.93;46.75
13011;BME280;6786;57.632;11.962;2024-02-23T02:15:35;96604.72;;;17.87;46.62
13011;BME280;6786;57.632;11.962;2024-02-23T02:18:04;96620.63;;;17.93;46.78
13011;BME280;6786;57.632;11.962;2024-02-23T02:20:33;96606.47;;;17.93;46.80
13011;BME280;6786;57.632;11.962;2024-02-23T02:23:04;96614.47;;;17.93;46.69
13011;BME280;6786;57.632;11.962;2024-02-23T02:25:35;96600.06;;;17.94;46.66
13011;BME280;6786;57.632;11.962;2024-02-23T02:28:06;96587.78;;;17.93;46.75
13011;BME280;6786;57.632;11.962;2024-02-23T02:30:34;96588.56;;;17.93;46.62
13011;BME280;6786;57.632;11.962;2024-02-23T02:33:03;96532.66;;;17.69;46.75
13011;BME280;6786;57.632;11.962;2024-02-23T02:35:31;96557.81;;;17.91;46.78
13011;BME280;6786;57.632;11.962;2024-02-23T02:37:59;96554.53;;;17.89;46.75
13011;BME280;6786;57.632;11.962;2024-02-23T02:40:27;96538.06;;;17.92;46.81
13011;BME280;6786;57.632;11.962;2024-02-23T02:42:57;96509.38;;;17.87;46.79
13011;BME280;6786;57.632;11.962;2024-02-23T02:45:25;96500.66;;;17.92;46.77
13011;BME280;6786;57.632;11.962;2024-02-23T02:47:53;96502.78;;;17.90;46.63
13011;BME280;6786;57.632;11.962;2024-02-23T02:50:23;96493.72;;;17.91;46.79
13011;BME280;6786;57.632;11.962;2024-02-23T02:52:52;96496.16;;;17.92;46.80
13011;BME280;6786;57.632;11.962;2024-02-23T02:55:20;96500.66;;;17.92;46.74
13011;BME280;6786;57.632;11.962;2024-02-23T02:57:48;96486.16;;;17.88;46.68
13011;BME280;6786;57.632;11.962;2024-02-23T03:00:18;96472.94;;;17.93;46.79
13011;BME280;6786;57.632;11.962;2024-02-23T03:02:46;96490.59;;;17.94;46.61
13011;BME280;6786;57.632;11.962;2024-02-23T03:05:14;96491.63;;;17.93;46.76
13011;BME280;6786;57.632;11.962;2024-02-23T03:07:43;96398.41;;;17.38;46.90
13011;BME280;6786;57.632;11.962;2024-02-23T03:10:11;96468.16;;;17.95;46.64
13011;BME280;6786;57.632;11.962;2024-02-23T03:12:39;96469.69;;;17.91;46.71
13011;BME280;6786;57.632;11.962;2024-02-23T03:15:08;96385.75;;;17.34;46.79
13011;BME280;6786;57.632;11.962;2024-02-23T03:17:38;96452.59;;;17.92;46.75
13011;BME280;6786;57.632;11.962;2024-02-23T03:20:07;96448.09;;;17.92;46.81
13011;BME280;6786;57.632;11.962;2024-02-23T03:22:36;96450.53;;;17.94;46.76
13011;BME280;6786;57.632;11.962;2024-02-23T03:25:05;96443.56;;;17.93;46.78
13011;BME280;6786;57.632;11.962;2024-02-23T03:27:36;96433.44;;;17.83;46.70
13011;BME280;6786;57.632;11.962;2024-02-23T03:30:06;96436.56;;;17.92;46.87
13011;BME280;6786;57.632;11.962;2024-02-23T03:32:35;96446.09;;;17.88;46.95
13011;BME280;6786;57.632;11.962;2024-02-23T03:35:08;96454.25;;;17.93;46.79
13011;BME280;6786;57.632;11.962;2024-02-23T03:37:36;96461.66;;;17.91;46.95
13011;BME280;6786;57.632;11.962;2024-02-23T03:40:06;96450.97;;;17.91;46.87
13011;BME280;6786;57.632;11.962;2024-02-23T03:42:34;96449.38;;;17.90;46.86
13011;BME280;6786;57.632;11.962;2024-02-23T03:45:04;96417.44;;;17.72;46.77
13011;BME280;6786;57.632;11.962;2024-02-23T03:47:33;96363.13;;;17.25;46.92
13011;BME280;6786;57.632;11.962;2024-02-23T03:50:02;96436.13;;;17.83;46.92
13011;BME280;6786;57.632;11.962;2024-02-23T03:52:32;96413.13;;;17.82;47.03
13011;BME280;6786;57.632;11.962;2024-02-23T03:55:00;96431.81;;;17.82;47.02
13011;BME280;6786;57.632;11.962;2024-02-23T03:57:29;96413.69;;;17.84;47.03
13011;BME280;6786;57.632;11.962;2024-02-23T03:59:57;96429.38;;;17.81;46.88
13011;BME280;6786;57.632;11.962;2024-02-23T04:02:24;96408.59;;;17.83;47.12
13011;BME280;6786;57.632;11.962;2024-02-23T04:04:52;96409.66;;;17.82;47.16
13011;BME280;6786;57.632;11.962;2024-02-23T04:07:21;96403.72;;;17.80;46.93
13011;BME280;6786;57.632;11.962;2024-02-23T04:09:51;96395.38;;;17.76;47.27
13011;BME280;6786;57.632;11.962;2024-02-23T04:12:21;96416.72;;;17.76;47.08
13011;BME280;6786;57.632;11.962;2024-02-23T04:14:50;96411.03;;;17.73;47.25
13011;BME280;6786;57.632;11.962;2024-02-23T04:17:18;96351.91;;;17.34;47.17
13011;BME280;6786;57.632;11.962;2024-02-23T04:19:46;96405.13;;;17.71;47.30
13011;BME280;6786;57.632;11.962;2024-02-23T04:22:15;96423.81;;;17.71;47.11
13011;BME280;6786;57.632;11.962;2024-02-23T04:24:43;96412.66;;;17.74;47.09
13011;BME280;6786;57.632;11.962;2024-02-23T04:27:13;96441.00;;;17.75;47.06
13011;BME280;6786;57.632;11.962;2024-02-23T04:29:41;96404.63;;;17.74;47.04
13011;BME280;6786;57.632;11.962;2024-02-23T04:32:09;96437.03;;;17.66;47.14
13011;BME280;6786;57.632;11.962;2024-02-23T04:34:38;96415.22;;;17.69;47.21
13011;BME280;6786;57.632;11.962;2024-02-23T04:37:07;96408.25;;;17.68;47.12
13011;BME280;6786;57.632;11.962;2024-02-23T04:39:35;96395.94;;;17.67;47.16
13011;BME280;6786;57.632;11.962;2024-02-23T04:42:04;96402.47;;;17.71;47.24
13011;BME280;6786;57.632;11.962;2024-02-23T04:44:36;96400.25;;;17.68;47.18
13011;BME280;6786;57.632;11.962;2024-02-23T04:47:05;96377.16;;;17.62;47.13
13011;BME280;6786;57.632;11.962;2024-02-23T04:49:33;96398.50;;;17.73;47.05
13011;BME280;6786;57.632;11.962;2024-02-23T04:52:01;96379.22;;;17.71;47.17
13011;BME280;6786;57.632;11.962;2024-02-23T04:54:30;96382.34;;;17.68;47.19
13011;BME280;6786;57.632;11.962;2024-02-23T04:56:58;96297.34;;;17.07;47.24
13011;BME280;6786;57.632;11.962;2024-02-23T04:59:26;96369.25;;;17.67;47.14
13011;BME280;6786;57.632;11.962;2024-02-23T05:01:56;96361.00;;;17.68;47.31
13011;BME280;6786;57.632;11.962;2024-02-23T05:04:24;96366.00;;;17.65;47.02
13011;BME280;6786;57.632;11.962;2024-02-23T05:06:54;96370.44;;;17.71;47.12
13011;BME280;6786;57.632;11.962;2024-02-23T05:09:23;96363.91;;;17.67;47.02
13011;BME280;6786;57.632;11.962;2024-02-23T05:11:51;96338.38;;;17.71;47.18
13011;BME280;6786;57.632;11.962;2024-02-23T05:14:19;96373.66;;;17.73;46.98
13011;BME280;6786;57.632;11.962;2024-02-23T05:16:48;96350.69;;;17.72;47.11
13011;BME280;6786;57.632;11.962;2024-02-23T05:19:17;96318.44;;;17.62;47.10
13011;BME280;6786;57.632;11.962;2024-02-23T05:21:46;96342.69;;;17.72;47.22
13011;BME280;6786;57.632;11.962;2024-02-23T05:24:14;96365.09;;;17.71;47.27
13011;BME280;6786;57.632;11.962;2024-02-23T05:26:42;96337.56;;;17.70;47.11
13011;BME280;6786;57.632;11.962;2024-02-23T05:29:11;96352.19;;;17.68;47.11
13011;BME280;6786;57.632;11.962;2024-02-23T05:31:46;96359.50;;;17.60;47.09
13011;BME280;6786;57.632;11.962;2024-02-23T05:34:14;96322.84;;;17.68;46.99
13011;BME280;6786;57.632;11.962;2024-02-23T05:36:44;96342.53;;;17.67;47.07
13011;BME280;6786;57.632;11.962;2024-02-23T05:39:13;96323.31;;;17.65;47.05
13011;BME280;6786;57.632;11.962;2024-02-23T05:41:42;96325.38;;;17.63;47.41
13011;BME280;6786;57.632;11.962;2024-02-23T05:44:11;96321.66;;;17.63;47.41
13011;BME280;6786;57.632;11.962;2024-02-23T05:46:42;96252.84;;;17.08;47.15
13011;BME280;6786;57.632;11.962;2024-02-23T05:49:11;96310.19;;;17.63;47.24
13011;BME280;6786;57.632;11.962;2024-02-23T05:51:39;96316.31;;;17.63;47.05
13011;BME280;6786;57.632;11.962;2024-02-23T05:54:10;96344.66;;;17.65;46.98
13011;BME280;6786;57.632;11.962;2024-02-23T05:56:38;96380.38;;;17.63;47.14
13011;BME280;6786;57.632;11.962;2024-02-23T05:59:06;96249.19;;;16.79;47.13
13011;BME280;6786;57.632;11.962;2024-02-23T06:01:34;96391.06;;;17.63;47.03
13011;BME280;6786;57.632;11.962;2024-02-23T06:04:03;96384.56;;;17.59;47.10
13011;BME280;6786;57.632;11.962;2024-02-23T06:06:32;96382.50;;;17.62;47.25
13011;BME280;6786;57.632;11.962;2024-02-23T06:09:00;96284.16;;;17.12;47.10
13011;BME280;6786;57.632;11.962;2024-02-23T06:11:31;96392.56;;;17.71;46.92
13011;BME280;6786;57.632;11.962;2024-02-23T06:13:59;96382.25;;;17.75;46.97
13011;BME280;6786;57.632;11.962;2024-02-23T06:16:27;96341.78;;;17.36;46.89
13011;BME280;6786;57.632;11.962;2024-02-23T06:18:55;96403.16;;;17.78;46.94
13011;BME280;6786;57.632;11.962;2024-02-23T06:21:25;96396.53;;;17.80;46.84
13011;BME280;6786;57.632;11.962;2024-02-23T06:23:53;96424.50;;;17.78;46.87
13011;BME280;6786;57.632;11.962;2024-02-23T06:26:21;96438.56;;;17.73;47.13
13011;BME280;6786;57.632;11.962;2024-02-23T06:28:51;96397.13;;;17.71;46.99
13011;BME280;6786;57.632;11.962;2024-02-23T06:31:19;96429.16;;;17.71;47.11
13011;BME280;6786;57.632;11.962;2024-02-23T06:33:47;96418.25;;;17.42;46.94
13011;BME280;6786;57.632;11.962;2024-02-23T06:36:18;96306.28;;;16.60;47.06
13011;BME280;6786;57.632;11.962;2024-02-23T06:38:46;96471.50;;;17.67;47.05
13011;BME280;6786;57.632;11.962;2024-02-23T06:41:14;96500.63;;;17.69;47.04
13011;BME280;6786;57.632;11.962;2024-02-23T06:43:43;96521.53;;;17.72;46.93
13011;BME280;6786;57.632;11.962;2024-02-23T06:46:12;96505.97;;;17.69;47.09
13011;BME280;6786;57.632;11.962;2024-02-23T06:48:45;96521.53;;;17.72;47.22
13011;BME280;6786;57.632;11.962;2024-02-23T06:51:14;96476.88;;;17.19;47.23
13011;BME280;6786;57.632;11.962;2024-02-23T06:53:43;96555.91;;;17.80;47.30
13011;BME280;6786;57.632;11.962;2024-02-23T06:56:12;96558.34;;;17.81;47.50
13011;BME280;6786;57.632;11.962;2024-02-23T06:58:40;96566.59;;;17.80;47.50
13011;BME280;6786;57.632;11.962;2024-02-23T07:01:08;96587.94;;;17.80;47.82
13011;BME280;6786;57.632;11.962;2024-02-23T07:03:41;96559.16;;;17.82;47.75
13011;BME280;6786;57.632;11.962;2024-02-23T07:06:10;96616.88;;;17.83;47.73
13011;BME280;6786;57.632;11.962;2024-02-23T07:08:39;96589.13;;;17.84;47.82
13011;BME280;6786;57.632;11.962;2024-02-23T07:11:07;96603.06;;;17.86;47.79
13011;BME280;6786;57.632;11.962;2024-02-23T07:13:36;96609.59;;;17.90;47.66
13011;BME280;6786;57.632;11.962;2024-02-23T07:16:05;96612.84;;;17.92;47.79
13011;BME280;6786;57.632;11.962;2024-02-23T07:18:33;96623.53;;;17.92;47.83
13011;BME280;6786;57.632;11.962;2024-02-23T07:21:03;96630.97;;;17.90;47.82
13011;BME280;6786;57.632;11.962;2024-02-23T07:23:32;96647.09;;;17.95;47.63
13011;BME280;6786;57.632;11.962;2024-02-23T07:26:00;96641.91;;;18.00;47.67
13011;BME280;6786;57.632;11.962;2024-02-23T07:28:28;96664.44;;;18.04;47.53
13011;BME280;6786;57.632;11.962;2024-02-23T07:30:57;96671.88;;;18.02;47.67
13011;BME280;6786;57.632;11.962;2024-02-23T07:33:25;96688.94;;;18.01;47.68
13011;BME280;6786;57.632;11.962;2024-02-23T07:35:53;96616.63;;;17.54;47.61
13011;BME280;6786;57.632;11.962;2024-02-23T07:38:23;96592.47;;;17.31;47.75
13011;BME280;6786;57.632;11.962;2024-02-23T07:40:51;96700.03;;;17.86;47.58
13011;BME280;6786;57.632;11.962;2024-02-23T07:43:19;96720.56;;;17.86;47.69
13011;BME280;6786;57.632;11.962;2024-02-23T07:45:57;96730.66;;;18.02;47.94
13011;BME280;6786;57.632;11.962;2024-02-23T07:48:25;96748.91;;;18.05;47.63
13011;BME280;6786;57.632;11.962;2024-02-23T07:50:53;96778.72;;;18.02;47.38
13011;BME280;6786;57.632;11.962;2024-02-23T07:53:23;96793.94;;;18.01;47.52
13011;BME280;6786;57.632;11.962;2024-02-23T07:55:51;96788.22;;;17.98;47.59
13011;BME280;6786;57.632;11.962;2024-02-23T07:58:19;96795.22;;;17.99;47.59
13011;BME280;6786;57.632;11.962;2024-02-23T08:00:48;96802.63;;;17.97;47.62
13011;BME280;6786;57.632;11.962;2024-02-23T08:03:16;96802.22;;;17.93;47.71
13011;BME280;6786;57.632;11.962;2024-02-23T08:05:44;96729.88;;;17.22;47.69
13011;BME280;6786;57.632;11.962;2024-02-23T08:08:14;96842.91;;;17.95;47.87
13011;BME280;6786;57.632;11.962;2024-02-23T08:10:44;96851.13;;;17.94;47.82
13011;BME280;6786;57.632;11.962;2024-02-23T08:13:12;96872.88;;;17.97;47.80
13011;BME280;6786;57.632;11.962;2024-02-23T08:15:40;96892.16;;;17.99;47.59
13011;BME280;6786;57.632;11.962;2024-02-23T08:18:17;96902.19;;;18.04;47.68
13011;BME280;6786;57.632;11.962;2024-02-23T08:20:49;96902.78;;;18.06;47.47
13011;BME280;6786;57.632;11.962;2024-02-23T08:23:18;96969.13;;;18.09;47.36
13011;BME280;6786;57.632;11.962;2024-02-23T08:25:48;96944.66;;;18.12;47.42
13011;BME280;6786;57.632;11.962;2024-02-23T08:28:17;96952.22;;;18.15;47.30
13011;BME280;6786;57.632;11.962;2024-02-23T08:30:45;96895.31;;;17.72;47.13
13011;BME280;6786;57.632;11.962;2024-02-23T08:33:13;96973.78;;;18.20;47.28
13011;BME280;6786;57.632;11.962;2024-02-23T08:35:42;96987.72;;;18.22;47.25
13011;BME280;6786;57.632;11.962;2024-02-23T08:38:15;96996.78;;;18.21;47.21
13011;BME280;6786;57.632;11.962;2024-02-23T08:40:43;97009.09;;;18.22;47.28
13011;BME280;6786;57.632;11.962;2024-02-23T08:43:13;96993.06;;;18.22;47.28
13011;BME280;6786;57.632;11.962;2024-02-23T08:45:41;96958.97;;;17.75;47.13
13011;BME280;6786;57.632;11.962;2024-02-23T08:48:11;96954.63;;;17.74;47.26
13011;BME280;6786;57.632;11.962;2024-02-23T08:50:47;97029.75;;;18.08;47.34
13011;BME280;6786;57.632;11.962;2024-02-23T08:53:18;97060.09;;;18.20;47.32
13011;BME280;6786;57.632;11.962;2024-02-23T08:55:46;97062.97;;;18.19;47.44
13011;BME280;6786;57.632;11.962;2024-02-23T08:58:16;97068.94;;;18.21;47.31
13011;BME280;6786;57.632;11.962;2024-02-23T09:00:44;97067.97;;;18.15;47.27
13011;BME280;6786;57.632;11.962;2024-02-23T09:03:12;97085.66;;;18.10;47.13
13011;BME280;6786;57.632;11.962;2024-02-23T09:05:41;97091.00;;;18.10;47.19
13011;BME280;6786;57.632;11.962;2024-02-23T09:08:10;97116.09;;;18.09;47.29
13011;BME280;6786;57.632;11.962;2024-02-23T09:10:38;97126.00;;;18.02;47.23
13011;BME280;6786;57.632;11.962;2024-02-23T09:13:06;97139.50;;;18.07;47.40
13011;BME280;6786;57.632;11.962;2024-02-23T09:15:36;97144.84;;;18.07;47.35
13011;BME280;6786;57.632;11.962;2024-02-23T09:18:05;97155.50;;;18.13;47.46
13011;BME280;6786;57.632;11.962;2024-02-23T09:20:34;97152.63;;;18.15;47.34
13011;BME280;6786;57.632;11.962;2024-02-23T09:23:03;97164.94;;;18.16;47.41
13011;BME280;6786;57.632;11.962;2024-02-23T09:25:34;97191.25;;;18.19;47.45
13011;BME280;6786;57.632;11.962;2024-02-23T09:28:06;97177.78;;;18.01;47.32
13011;BME280;6786;57.632;11.962;2024-02-23T09:30:42;97218.34;;;18.22;47.32
13011;BME280;6786;57.632;11.962;2024-02-23T09:33:11;97225.34;;;18.23;47.28
13011;BME280;6786;57.632;11.962;2024-02-23T09:35:41;97243.66;;;18.20;47.35
13011;BME280;6786;57.632;11.962;2024-02-23T09:38:19;97236.88;;;18.17;47.86
13011;BME280;6786;57.632;11.962;2024-02-23T09:40:47;97244.53;;;18.14;47.54
13011;BME280;6786;57.632;11.962;2024-02-23T09:43:19;97261.75;;;18.18;47.44
13011;BME280;6786;57.632;11.962;2024-02-23T09:45:53;97284.19;;;18.17;47.40
13011;BME280;6786;57.632;11.962;2024-02-23T09:48:22;97309.25;;;18.16;47.30
13011;BME280;6786;57.632;11.962;2024-02-23T09:50:52;97294.88;;;18.17;47.32
13011;BME280;6786;57.632;11.962;2024-02-23T09:53:20;97302.88;;;18.17;47.39
13011;BME280;6786;57.632;11.962;2024-02-23T09:55:50;97288.28;;;18.13;47.42
13011;BME280;6786;57.632;11.962;2024-02-23T09:58:19;97330.19;;;18.19;47.38
13011;BME280;6786;57.632;11.962;2024-02-23T10:00:48;97341.94;;;18.18;47.47
13011;BME280;6786;57.632;11.962;2024-02-23T10:03:18;97334.75;;;18.12;47.58
13011;BME280;6786;57.632;11.962;2024-02-23T10:05:47;97359.00;;;18.17;47.50
13011;BME280;6786;57.632;11.962;2024-02-23T10:08:23;97359.00;;;18.17;47.63
13011;BME280;6786;57.632;11.962;2024-02-23T10:10:53;97376.66;;;18.18;47.55
13011;BME280;6786;57.632;11.962;2024-02-23T10:13:22;97378.31;;;18.19;47.49
13011;BME280;6786;57.632;11.962;2024-02-23T10:15:50;97394.13;;;18.20;47.52
13011;BME280;6786;57.632;11.962;2024-02-23T10:18:40;97416.34;;;18.21;47.37
13011;BME280;6786;57.632;11.962;2024-02-23T10:21:08;97414.09;;;18.18;47.21
13011;BME280;6786;57.632;11.962;2024-02-23T10:23:36;97426.81;;;18.16;47.20
13011;BME280;6786;57.632;11.962;2024-02-23T10:26:05;97452.53;;;18.17;47.20
13011;BME280;6786;57.632;11.962;2024-02-23T10:28:34;97439.97;;;18.17;46.97
13011;BME280;6786;57.632;11.962;2024-02-23T10:31:03;97453.53;;;18.16;46.94
13011;BME280;6786;57.632;11.962;2024-02-23T10:33:31;97445.56;;;18.03;46.92
13011;BME280;6786;57.632;11.962;2024-02-23T10:36:01;97477.00;;;18.14;47.14
13011;BME280;6786;57.632;11.962;2024-02-23T10:38:32;97401.84;;;17.58;47.03
13011;BME280;6786;57.632;11.962;2024-02-23T10:41:03;97513.16;;;18.16;47.17
13011;BME280;6786;57.632;11.962;2024-02-23T10:43:36;97500.00;;;18.15;47.16
13011;BME280;6786;57.632;11.962;2024-02-23T10:46:08;97510.28;;;18.18;47.13
13011;BME280;6786;57.632;11.962;2024-02-23T10:48:41;97510.69;;;18.15;47.20
13011;BME280;6786;57.632;11.962;2024-02-23T10:51:13;97545.22;;;18.23;47.08
13011;BME280;6786;57.632;11.962;2024-02-23T10:53:48;97536.97;;;18.24;47.18
13011;BME280;6786;57.632;11.962;2024-02-23T10:56:17;97481.53;;;17.68;47.01
13011;BME280;6786;57.632;11.962;2024-02-23T10:58:46;97567.84;;;18.27;47.15
13011;BME280;6786;57.632;11.962;2024-02-23T11:01:14;97565.78;;;18.29;46.95
13011;BME280;6786;57.632;11.962;2024-02-23T11:03:44;97580.81;;;18.30;46.96
13011;BME280;6786;57.632;11.962;2024-02-23T11:06:19;97596.22;;;18.28;47.05
13011;BME280;6786;57.632;11.962;2024-02-23T11:08:49;97619.22;;;18.29;47.22
13011;BME280;6786;57.632;11.962;2024-02-23T11:11:18;97630.97;;;18.28;47.08
13011;BME280;6786;57.632;11.962;2024-02-23T11:13:47;97631.59;;;18.30;46.97
13011;BME280;6786;57.632;11.962;2024-02-23T11:16:21;97617.59;;;18.15;47.26
13011;BME280;6786;57.632;11.962;2024-02-23T11:19:03;97652.97;;;18.30;47.22
13011;BME280;6786;57.632;11.962;2024-02-23T11:21:36;97669.41;;;18.27;47.13
13011;BME280;6786;57.632;11.962;2024-02-23T11:24:05;97598.41;;;17.79;47.17
13011;BME280;6786;57.632;11.962;2024-02-23T11:26:37;97611.81;;;17.85;47.20
13011;BME280;6786;57.632;11.962;2024-02-23T11:29:12;97597.38;;;17.67;47.36
13011;BME280;6786;57.632;11.962;2024-02-23T11:31:46;97599.47;;;17.78;47.27
13011;BME280;6786;57.632;11.962;2024-02-23T11:34:26;97680.09;;;18.27;47.37
13011;BME280;6786;57.632;11.962;2024-02-23T11:36:56;97685.88;;;18.24;47.16
13011;BME280;6786;57.632;11.962;2024-02-23T11:39:26;97704.56;;;18.24;47.26
13011;BME280;6786;57.632;11.962;2024-02-23T11:41:55;97636.84;;;17.78;47.20
13011;BME280;6786;57.632;11.962;2024-02-23T11:44:24;97727.81;;;18.30;47.23
13011;BME280;6786;57.632;11.962;2024-02-23T11:46:52;97731.09;;;18.32;47.21
13011;BME280;6786;57.632;11.962;2024-02-23T11:49:20;97731.09;;;18.32;47.17
13011;BME280;6786;57.632;11.962;2024-02-23T11:51:56;97740.97;;;18.31;47.12
13011;BME280;6786;57.632;11.962;2024-02-23T11:54:24;97753.28;;;18.26;47.30
13011;BME280;6786;57.632;11.962;2024-02-23T11:56:53;97684.53;;;17.81;47.21
13011;BME280;6786;57.632;11.962;2024-02-23T11:59:21;97758.22;;;18.29;47.27
13011;BME280;6786;57.632;11.962;2024-02-23T12:01:51;97752.88;;;18.22;47.21
13011;BME280;6786;57.632;11.962;2024-02-23T12:04:19;97742.78;;;18.11;47.23
13011;BME280;6786;57.632;11.962;2024-02-23T12:06:47;97784.97;;;18.29;47.33
13011;BME280;6786;57.632;11.962;2024-02-23T12:09:17;97801.41;;;18.26;47.03
13011;BME280;6786;57.632;11.962;2024-02-23T12:11:45;97690.16;;;17.51;47.13
13011;BME280;6786;57.632;11.962;2024-02-23T12:14:14;97827.28;;;18.19;47.08
13011;BME280;6786;57.632;11.962;2024-02-23T12:16:43;97824.00;;;18.17;46.99
13011;BME280;6786;57.632;11.962;2024-02-23T12:19:11;97829.34;;;18.17;47.13
13011;BME280;6786;57.632;11.962;2024-02-23T12:21:39;97824.81;;;18.17;46.91
13011;BME280;6786;57.632;11.962;2024-02-23T12:24:08;97843.72;;;18.16;46.96
13011;BME280;6786;57.632;11.962;2024-02-23T12:26:38;97857.72;;;18.18;46.80
13011;BME280;6786;57.632;11.962;2024-02-23T12:29:06;97850.75;;;18.17;46.81
13011;BME280;6786;57.632;11.962;2024-02-23T12:31:34;97870.66;;;18.14;46.82
13011;BME280;6786;57.632;11.962;2024-02-23T12:34:03;97861.81;;;18.14;46.85
13011;BME280;6786;57.632;11.962;2024-02-23T12:36:31;97877.22;;;18.12;46.75
13011;BME280;6786;57.632;11.962;2024-02-23T12:39:02;97885.25;;;18.12;46.68
13011;BME280;6786;57.632;11.962;2024-02-23T12:41:30;97893.00;;;18.07;46.73
13011;BME280;6786;57.632;11.962;2024-02-23T12:44:00;97824.53;;;17.65;46.76
13011;BME280;6786;57.632;11.962;2024-02-23T12:46:38;97923.50;;;18.12;46.53
13011;BME280;6786;57.632;11.962;2024-02-23T12:49:08;97929.22;;;18.09;46.71
13011;BME280;6786;57.632;11.962;2024-02-23T12:51:37;97921.81;;;18.05;46.54
13011;BME280;6786;57.632;11.962;2024-02-23T12:54:05;97936.84;;;18.12;46.84
13011;BME280;6786;57.632;11.962;2024-02-23T12:56:33;97938.28;;;18.15;46.87
13011;BME280;6786;57.632;11.962;2024-02-23T12:59:30;97946.56;;;18.20;47.38
13011;BME280;6786;57.632;11.962;2024-02-23T13:01:59;97942.84;;;18.21;46.88
13011;BME280;6786;57.632;11.962;2024-02-23T13:04:27;97952.31;;;18.23;46.89
13011;BME280;6786;57.632;11.962;2024-02-23T13:06:55;97951.09;;;18.26;47.02
13011;BME280;6786;57.632;11.962;2024-02-23T13:09:25;97958.06;;;18.20;47.01
13011;BME280;6786;57.632;11.962;2024-02-23T13:11:53;97962.63;;;18.26;46.93